createdAt,value
2019-02-11T00:00:01.821Z,8.85
2019-02-11T00:02:30.101Z,8.30
2019-02-11T00:04:58.367Z,8.00
2019-02-11T00:07:26.602Z,7.50
2019-02-11T00:09:54.869Z,6.70
2019-02-11T00:12:23.131Z,5.75
2019-02-11T00:14:51.405Z,6.00
2019-02-11T00:17:19.659Z,5.30
2019-02-11T00:19:50.447Z,5.72
2019-02-11T00:22:18.759Z,5.28
2019-02-11T00:24:47.079Z,5.55
2019-02-11T00:27:15.663Z,5.80
2019-02-11T00:29:43.940Z,4.58
2019-02-11T00:32:13.807Z,4.90
2019-02-11T00:34:42.071Z,4.42
2019-02-11T00:37:10.342Z,4.53
2019-02-11T00:39:38.596Z,4.05
2019-02-11T00:42:06.841Z,5.35
2019-02-11T00:44:35.123Z,4.40
2019-02-11T00:47:03.394Z,4.20
2019-02-11T00:49:31.645Z,3.65
2019-02-11T00:51:59.917Z,3.87
2019-02-11T00:54:28.164Z,2.98
2019-02-11T00:56:56.429Z,3.60
2019-02-11T00:59:24.692Z,3.45
2019-02-11T01:01:52.956Z,3.62
2019-02-11T01:04:21.202Z,3.27
2019-02-11T01:06:49.490Z,3.52
2019-02-11T01:09:17.724Z,3.02
2019-02-11T01:11:45.992Z,3.02
2019-02-11T01:14:14.250Z,2.83
2019-02-11T01:16:42.503Z,2.80
2019-02-11T01:19:10.744Z,2.42
2019-02-11T01:21:39.025Z,2.42
2019-02-11T01:24:07.276Z,2.70
2019-02-11T01:26:35.549Z,2.50
2019-02-11T01:29:03.804Z,2.67
2019-02-11T01:31:32.153Z,2.60
2019-02-11T01:34:00.412Z,2.17
2019-02-11T01:36:28.658Z,2.70
2019-02-11T01:38:56.918Z,2.10
2019-02-11T01:41:25.210Z,2.00
2019-02-11T01:43:53.482Z,2.17
2019-02-11T01:46:21.726Z,2.15
2019-02-11T01:48:49.992Z,2.40
2019-02-11T01:51:18.251Z,2.20
2019-02-11T01:53:46.521Z,2.30
2019-02-11T01:56:14.754Z,2.02
2019-02-11T01:58:43.006Z,2.30
2019-02-11T02:01:11.273Z,2.20
2019-02-11T02:03:39.528Z,2.12
2019-02-11T02:06:07.806Z,2.27
2019-02-11T02:08:36.073Z,2.12
2019-02-11T02:11:04.312Z,2.20
2019-02-11T02:13:32.577Z,1.77
2019-02-11T02:16:00.826Z,2.60
2019-02-11T02:18:29.082Z,2.35
2019-02-11T02:20:57.332Z,2.00
2019-02-11T02:23:25.576Z,2.72
2019-02-11T02:25:53.844Z,2.30
2019-02-11T02:28:22.095Z,2.15
2019-02-11T02:30:50.362Z,2.27
2019-02-11T02:33:18.604Z,2.72
2019-02-11T02:35:46.863Z,2.75
2019-02-11T02:38:15.476Z,2.33
2019-02-11T02:40:43.732Z,3.10
2019-02-11T02:43:12.004Z,2.30
2019-02-11T02:45:40.284Z,2.83
2019-02-11T02:48:08.526Z,2.37
2019-02-11T02:50:36.802Z,2.65
2019-02-11T02:53:05.035Z,2.90
2019-02-11T02:55:34.876Z,2.10
2019-02-11T02:58:03.426Z,2.75
2019-02-11T03:00:31.683Z,2.67
2019-02-11T03:02:59.967Z,2.60
2019-02-11T03:05:28.257Z,2.40
2019-02-11T03:07:56.512Z,2.35
2019-02-11T03:10:24.776Z,3.22
2019-02-11T03:12:53.096Z,3.25
2019-02-11T03:15:21.347Z,3.00
2019-02-11T03:17:49.595Z,3.47
2019-02-11T03:20:17.830Z,3.08
2019-02-11T03:22:46.089Z,4.35
2019-02-11T03:25:14.339Z,3.92
2019-02-11T03:27:42.605Z,2.95
2019-02-11T03:30:10.932Z,3.40
2019-02-11T03:32:39.183Z,3.42
2019-02-11T03:35:07.612Z,3.33
2019-02-11T03:37:35.859Z,2.35
2019-02-11T03:40:06.357Z,3.47
2019-02-11T03:42:34.642Z,3.00
2019-02-11T03:45:03.077Z,3.35
2019-02-11T03:47:31.368Z,3.12
2019-02-11T03:49:59.621Z,3.30
2019-02-11T03:52:27.883Z,2.58
2019-02-11T03:54:56.141Z,3.15
2019-02-11T03:57:24.405Z,3.05
2019-02-11T03:59:52.667Z,3.40
2019-02-11T04:02:20.963Z,3.37
2019-02-11T04:04:49.241Z,3.10
2019-02-11T04:07:17.517Z,3.02
2019-02-11T04:09:45.753Z,3.70
2019-02-11T04:12:14.001Z,3.37
2019-02-11T04:14:42.257Z,3.40
2019-02-11T04:17:10.509Z,3.08
2019-02-11T04:19:38.781Z,3.10
2019-02-11T04:22:07.801Z,3.72
2019-02-11T04:24:36.062Z,2.77
2019-02-11T04:27:04.320Z,2.67
2019-02-11T04:29:32.601Z,3.02
2019-02-11T04:32:00.815Z,2.77
2019-02-11T04:34:29.104Z,2.72
2019-02-11T04:36:57.358Z,2.85
2019-02-11T04:39:25.627Z,2.98
2019-02-11T04:41:53.864Z,2.67
2019-02-11T04:44:22.139Z,3.77
2019-02-11T04:46:50.391Z,2.75
2019-02-11T04:49:18.687Z,2.87
2019-02-11T04:51:46.947Z,3.47
2019-02-11T04:54:15.280Z,3.45
2019-02-11T04:56:43.535Z,3.08
2019-02-11T04:59:11.822Z,3.05
2019-02-11T05:01:40.077Z,3.42
2019-02-11T05:04:08.348Z,2.98
2019-02-11T05:06:36.621Z,3.33
2019-02-11T05:09:07.555Z,4.45
2019-02-11T05:11:35.811Z,2.90
2019-02-11T05:14:04.065Z,2.77
2019-02-11T05:16:32.333Z,3.00
2019-02-11T05:19:00.597Z,3.87
2019-02-11T05:21:28.863Z,3.45
2019-02-11T05:23:57.127Z,3.72
2019-02-11T05:26:25.410Z,3.50
2019-02-11T05:28:53.667Z,3.72
2019-02-11T05:31:21.939Z,4.03
2019-02-11T05:33:50.196Z,3.12
2019-02-11T05:36:18.472Z,3.02
2019-02-11T05:38:46.706Z,3.72
2019-02-11T05:41:14.966Z,3.27
2019-02-11T05:43:43.239Z,3.22
2019-02-11T05:46:11.506Z,3.80
2019-02-11T05:48:39.758Z,3.67
2019-02-11T05:51:08.031Z,3.52
2019-02-11T05:53:36.286Z,2.90
2019-02-11T05:56:04.552Z,3.52
2019-02-11T05:58:32.798Z,3.75
2019-02-11T06:01:01.088Z,3.60
2019-02-11T06:03:29.349Z,3.85
2019-02-11T06:05:57.596Z,2.80
2019-02-11T06:08:28.710Z,4.10
2019-02-11T06:10:56.984Z,3.90
2019-02-11T06:13:25.208Z,3.12
2019-02-11T06:15:53.461Z,3.47
2019-02-11T06:18:21.743Z,3.83
2019-02-11T06:20:51.872Z,3.65
2019-02-11T06:23:27.173Z,3.90
2019-02-11T06:25:55.430Z,4.05
2019-02-11T06:28:23.718Z,4.00
2019-02-11T06:30:51.968Z,3.52
2019-02-11T06:33:20.253Z,3.10
2019-02-11T06:35:48.555Z,3.72
2019-02-11T06:38:16.807Z,3.98
2019-02-11T06:40:45.137Z,4.42
2019-02-11T06:43:15.038Z,5.50
2019-02-11T06:45:43.293Z,3.98
2019-02-11T06:48:11.550Z,3.40
2019-02-11T06:50:41.436Z,3.58
2019-02-11T06:53:09.685Z,3.72
2019-02-11T06:55:37.931Z,4.12
2019-02-11T06:58:06.246Z,4.15
2019-02-11T07:00:34.519Z,5.22
2019-02-11T07:03:02.787Z,4.37
2019-02-11T07:05:31.051Z,4.42
2019-02-11T07:07:59.330Z,4.25
2019-02-11T07:10:27.586Z,4.17
2019-02-11T07:12:55.825Z,4.05
2019-02-11T07:15:24.091Z,4.45
2019-02-11T07:17:52.371Z,3.60
2019-02-11T07:20:20.643Z,4.08
2019-02-11T07:22:48.926Z,4.47
2019-02-11T07:25:17.182Z,4.35
2019-02-11T07:27:45.481Z,4.35
2019-02-11T07:30:14.226Z,3.77
2019-02-11T07:32:42.506Z,3.90
2019-02-11T07:35:10.783Z,4.15
2019-02-11T07:37:39.027Z,4.03
2019-02-11T07:40:10.045Z,4.03
2019-02-11T07:42:39.930Z,4.15
2019-02-11T07:45:11.881Z,5.08
2019-02-11T07:47:40.180Z,4.08
2019-02-11T07:50:08.433Z,5.60
2019-02-11T07:52:36.716Z,4.85
2019-02-11T07:55:05.838Z,4.33
2019-02-11T07:57:34.102Z,5.15
2019-02-11T08:00:02.364Z,4.30
2019-02-11T08:02:30.631Z,5.17
2019-02-11T08:04:58.878Z,4.62
2019-02-11T08:07:27.183Z,4.62
2019-02-11T08:09:55.454Z,5.05
2019-02-11T08:12:23.728Z,5.47
2019-02-11T08:14:51.968Z,4.97
2019-02-11T08:17:20.280Z,4.53
2019-02-11T08:19:48.513Z,4.67
2019-02-11T08:22:16.774Z,5.08
2019-02-11T08:24:45.070Z,4.67
2019-02-11T08:27:13.834Z,4.33
2019-02-11T08:29:43.299Z,4.33
2019-02-11T08:32:11.551Z,4.67
2019-02-11T08:34:39.810Z,4.00
2019-02-11T08:37:08.061Z,5.33
2019-02-11T08:39:36.329Z,3.95
2019-02-11T08:42:04.580Z,4.17
2019-02-11T08:44:33.671Z,4.45
2019-02-11T08:47:01.998Z,3.92
2019-02-11T08:49:30.271Z,4.05
2019-02-11T08:51:58.576Z,3.80
2019-02-11T08:54:26.812Z,4.53
2019-02-11T08:56:55.094Z,4.95
2019-02-11T08:59:23.425Z,4.60
2019-02-11T09:01:51.715Z,4.08
2019-02-11T09:04:19.998Z,4.85
2019-02-11T09:06:48.296Z,4.22
2019-02-11T09:09:16.572Z,4.75
2019-02-11T09:11:44.831Z,4.17
2019-02-11T09:14:13.101Z,4.47
2019-02-11T09:16:41.371Z,5.53
2019-02-11T09:19:09.702Z,4.37
2019-02-11T09:21:37.964Z,3.83
2019-02-11T09:24:06.224Z,4.62
2019-02-11T09:26:34.515Z,3.83
2019-02-11T09:29:02.838Z,4.80
2019-02-11T09:31:31.126Z,4.20
2019-02-11T09:33:59.373Z,4.35
2019-02-11T09:36:27.692Z,4.92
2019-02-11T09:38:55.973Z,5.25
2019-02-11T09:41:24.240Z,3.75
2019-02-11T09:43:52.500Z,3.65
2019-02-11T09:46:21.361Z,4.30
2019-02-11T09:48:49.634Z,4.65
2019-02-11T09:51:18.179Z,4.00
2019-02-11T09:53:46.455Z,4.67
2019-02-11T09:56:14.792Z,4.72
2019-02-11T09:58:43.045Z,4.47
2019-02-11T10:01:11.313Z,4.17
2019-02-11T10:03:39.565Z,4.67
2019-02-11T10:06:07.844Z,4.95
2019-02-11T10:08:36.228Z,4.17
2019-02-11T10:11:04.504Z,4.70
2019-02-11T10:13:32.756Z,4.47
2019-02-11T10:16:01.007Z,3.87
2019-02-11T10:18:29.265Z,4.22
2019-02-11T10:20:57.683Z,4.60
2019-02-11T10:23:25.953Z,3.83
2019-02-11T10:25:54.234Z,3.80
2019-02-11T10:28:22.513Z,4.20
2019-02-11T10:30:50.797Z,4.28
2019-02-11T10:33:19.053Z,4.22
2019-02-11T10:35:47.391Z,4.72
2019-02-11T10:38:15.653Z,4.33
2019-02-11T10:40:43.887Z,3.62
2019-02-11T10:43:12.163Z,3.95
2019-02-11T10:45:40.422Z,4.10
2019-02-11T10:48:08.694Z,3.45
2019-02-11T10:50:37.013Z,4.10
2019-02-11T10:53:05.273Z,3.33
2019-02-11T10:55:33.569Z,3.65
2019-02-11T10:58:01.818Z,4.28
2019-02-11T11:00:30.179Z,3.70
2019-02-11T11:03:00.130Z,4.12
2019-02-11T11:05:28.405Z,3.58
2019-02-11T11:07:56.660Z,3.35
2019-02-11T11:10:33.996Z,3.33
2019-02-11T11:13:02.234Z,3.55
2019-02-11T11:15:30.507Z,3.45
2019-02-11T11:17:58.752Z,2.80
2019-02-11T11:20:27.435Z,3.20
2019-02-11T11:22:55.765Z,3.35
2019-02-11T11:25:24.014Z,3.17
2019-02-11T11:27:52.294Z,3.55
2019-02-11T11:30:23.071Z,2.98
2019-02-11T11:32:51.313Z,3.02
2019-02-11T11:35:19.648Z,2.65
2019-02-11T11:37:47.899Z,2.40
2019-02-11T11:40:21.188Z,2.47
2019-02-11T11:42:49.433Z,2.42
2019-02-11T11:45:21.039Z,2.80
2019-02-11T11:47:49.280Z,2.50
2019-02-11T11:50:17.932Z,2.77
2019-02-11T11:52:46.194Z,2.40
2019-02-11T11:55:22.509Z,2.00
2019-02-11T11:57:50.765Z,1.72
2019-02-11T12:00:29.986Z,1.80
2019-02-11T12:03:02.697Z,1.62
2019-02-11T12:05:28.319Z,1.57
2019-02-11T12:07:56.568Z,1.75
2019-02-11T12:10:24.854Z,1.47
2019-02-11T12:12:53.121Z,1.27
2019-02-11T12:15:23.433Z,1.50
2019-02-11T12:17:51.770Z,1.32
2019-02-11T12:20:20.036Z,1.32
2019-02-11T12:22:48.364Z,1.10
2019-02-11T12:25:17.977Z,1.22
2019-02-11T12:27:46.377Z,1.32
2019-02-11T12:30:23.107Z,1.50
2019-02-11T12:32:54.307Z,1.42
2019-02-11T12:35:21.343Z,1.22
2019-02-11T12:37:49.636Z,1.52
2019-02-11T12:40:17.891Z,1.40
2019-02-11T12:42:46.168Z,1.37
2019-02-11T12:45:17.215Z,1.65
2019-02-11T12:47:45.560Z,1.60
2019-02-11T12:50:15.643Z,1.42
2019-02-11T12:52:43.881Z,1.60
2019-02-11T12:55:16.776Z,2.12
2019-02-11T12:57:45.061Z,1.90
2019-02-11T13:00:18.688Z,2.08
2019-02-11T13:02:47.093Z,2.15
2019-02-11T13:05:15.410Z,1.80
2019-02-11T13:07:43.774Z,1.95
2019-02-11T13:10:15.289Z,1.87
2019-02-11T13:12:43.622Z,2.05
2019-02-11T13:15:33.491Z,2.20
2019-02-11T13:17:43.614Z,1.80
2019-02-11T13:20:14.403Z,2.47
2019-02-11T13:22:42.623Z,2.33
2019-02-11T13:25:15.824Z,2.77
2019-02-11T13:27:44.062Z,2.22
2019-02-11T13:30:14.788Z,2.52
2019-02-11T13:32:43.053Z,2.10
2019-02-11T13:35:11.326Z,1.75
2019-02-11T13:37:39.611Z,2.83
2019-02-11T13:40:09.722Z,2.40
2019-02-11T13:42:38.042Z,2.17
2019-02-11T13:45:12.056Z,2.10
2019-02-11T13:47:53.887Z,2.30
2019-02-11T13:50:16.076Z,3.08
2019-02-11T13:52:44.424Z,2.55
2019-02-11T13:55:12.751Z,2.00
2019-02-11T13:57:41.017Z,2.15
2019-02-11T14:00:16.355Z,2.10
2019-02-11T14:02:47.117Z,3.05
2019-02-11T14:05:15.791Z,2.30
2019-02-11T14:07:44.049Z,2.05
2019-02-11T14:10:12.590Z,2.08
2019-02-11T14:12:40.945Z,2.58
2019-02-11T14:15:09.191Z,2.33
2019-02-11T14:17:37.488Z,2.45
2019-02-11T14:20:08.934Z,2.05
2019-02-11T14:22:37.209Z,2.22
2019-02-11T14:25:05.839Z,2.05
2019-02-11T14:27:34.120Z,1.57
2019-02-11T14:30:02.471Z,2.17
2019-02-11T14:32:31.635Z,2.08
2019-02-11T14:35:00.005Z,1.98
2019-02-11T14:37:28.275Z,1.95
2019-02-11T14:39:56.524Z,2.15
2019-02-11T14:42:24.777Z,1.82
2019-02-11T14:44:56.009Z,1.85
2019-02-11T14:47:24.294Z,2.10
2019-02-11T14:49:53.899Z,1.90
2019-02-11T14:52:22.476Z,1.80
2019-02-11T14:54:51.196Z,1.52
2019-02-11T14:57:19.485Z,1.42
2019-02-11T14:59:47.734Z,1.57
2019-02-11T15:02:15.982Z,1.90
2019-02-11T15:04:44.257Z,2.12
2019-02-11T15:07:12.518Z,2.22
2019-02-11T15:09:40.784Z,1.75
2019-02-11T15:12:09.031Z,1.57
2019-02-11T15:14:37.318Z,1.95
2019-02-11T15:17:05.647Z,1.92
2019-02-11T15:19:35.552Z,1.80
2019-02-11T15:22:03.807Z,1.95
2019-02-11T15:24:32.074Z,2.52
2019-02-11T15:27:00.328Z,2.95
2019-02-11T15:29:28.638Z,3.35
2019-02-11T15:31:56.891Z,3.00
2019-02-11T15:34:25.151Z,3.85
2019-02-11T15:36:53.431Z,2.58
2019-02-11T15:39:21.703Z,2.52
2019-02-11T15:41:49.967Z,2.20
2019-02-11T15:44:18.225Z,2.58
2019-02-11T15:46:46.482Z,2.10
2019-02-11T15:49:14.782Z,2.52
2019-02-11T15:51:43.027Z,2.10
2019-02-11T15:54:11.313Z,2.05
2019-02-11T15:56:39.559Z,2.35
2019-02-11T15:59:09.211Z,2.25
2019-02-11T16:01:37.664Z,2.67
2019-02-11T16:04:06.836Z,2.85
2019-02-11T16:06:38.071Z,3.55
2019-02-11T16:09:05.556Z,3.35
2019-02-11T16:11:35.728Z,3.83
2019-02-11T16:14:04.240Z,3.60
2019-02-11T16:16:32.516Z,3.10
2019-02-11T16:19:02.429Z,3.30
2019-02-11T16:21:30.714Z,3.50
2019-02-11T16:23:59.024Z,3.50
2019-02-11T16:26:27.305Z,3.17
2019-02-11T16:28:55.536Z,3.45
2019-02-11T16:31:23.814Z,3.60
2019-02-11T16:33:52.296Z,3.25
2019-02-11T16:36:20.617Z,3.30
2019-02-11T16:38:48.894Z,3.65
2019-02-11T16:41:17.179Z,3.50
2019-02-11T16:43:45.466Z,3.70
2019-02-11T16:46:13.734Z,3.75
2019-02-11T16:48:42.044Z,3.02
2019-02-11T16:51:12.839Z,2.77
2019-02-11T16:53:42.743Z,3.22
2019-02-11T16:56:19.835Z,3.33
2019-02-11T16:58:49.775Z,3.10
2019-02-11T17:01:18.060Z,3.52
2019-02-11T17:03:46.839Z,3.35
2019-02-11T17:06:15.116Z,3.60
2019-02-11T17:08:45.458Z,2.60
2019-02-11T17:11:15.363Z,3.83
2019-02-11T17:13:44.676Z,3.92
2019-02-11T17:16:13.434Z,3.12
2019-02-11T17:18:43.322Z,2.95
2019-02-11T17:21:13.267Z,3.00
2019-02-11T17:23:41.551Z,3.42
2019-02-11T17:26:09.852Z,3.22
2019-02-11T17:28:38.094Z,3.42
2019-02-11T17:31:06.371Z,3.67
2019-02-11T17:33:34.675Z,2.80
2019-02-11T17:36:03.071Z,3.00
2019-02-11T17:38:31.368Z,2.80
2019-02-11T17:40:59.626Z,3.40
2019-02-11T17:43:27.906Z,3.00
2019-02-11T17:45:57.047Z,2.83
2019-02-11T17:48:26.972Z,3.47
2019-02-11T17:50:55.247Z,2.87
2019-02-11T17:53:23.887Z,2.75
2019-02-11T17:55:52.156Z,2.83
2019-02-11T17:58:20.419Z,3.60
2019-02-11T18:00:50.347Z,2.25
2019-02-11T18:03:18.596Z,2.65
2019-02-11T18:05:46.984Z,2.90
2019-02-11T18:08:15.330Z,3.08
2019-02-11T18:10:43.587Z,3.00
2019-02-11T18:13:11.856Z,2.77
2019-02-11T18:15:40.133Z,2.50
2019-02-11T18:18:08.398Z,2.72
2019-02-11T18:20:36.660Z,3.22
2019-02-11T18:23:04.905Z,2.98
2019-02-11T18:25:33.179Z,4.00
2019-02-11T18:28:01.432Z,2.87
2019-02-11T18:30:29.705Z,3.35
2019-02-11T18:32:57.975Z,3.08
2019-02-11T18:35:26.239Z,2.85
2019-02-11T18:37:54.529Z,3.60
2019-02-11T18:40:22.797Z,3.45
2019-02-11T18:42:52.760Z,2.85
2019-02-11T18:45:21.069Z,3.65
2019-02-11T18:47:50.617Z,3.40
2019-02-11T18:50:18.981Z,3.65
2019-02-11T18:52:47.246Z,3.33
2019-02-11T18:55:17.556Z,4.28
2019-02-11T18:57:45.838Z,6.03
2019-02-11T19:00:17.733Z,3.60
2019-02-11T19:02:46.028Z,3.27
2019-02-11T19:05:14.624Z,4.22
2019-02-11T19:07:42.917Z,3.12
2019-02-11T19:10:13.107Z,3.72
2019-02-11T19:12:41.401Z,4.03
2019-02-11T19:15:12.106Z,3.40
2019-02-11T19:17:40.412Z,3.58
2019-02-11T19:20:16.482Z,3.27
2019-02-11T19:22:44.775Z,3.22
2019-02-11T19:25:13.096Z,3.47
2019-02-11T19:27:41.434Z,3.12
2019-02-11T19:30:18.450Z,3.58
2019-02-11T19:32:46.719Z,2.98
2019-02-11T19:35:15.014Z,3.50
2019-02-11T19:37:43.369Z,3.42
2019-02-11T19:40:14.129Z,4.30
2019-02-11T19:42:42.423Z,3.50
2019-02-11T19:45:13.240Z,3.72
2019-02-11T19:47:41.504Z,2.83
2019-02-11T19:50:12.500Z,3.08
2019-02-11T19:52:40.842Z,3.02
2019-02-11T19:55:11.002Z,2.70
2019-02-11T19:57:39.199Z,2.40
2019-02-11T20:00:24.669Z,3.27
2019-02-11T20:02:54.574Z,2.90
2019-02-11T20:05:22.880Z,2.85
2019-02-11T20:07:51.209Z,2.50
2019-02-11T20:10:25.618Z,3.00
2019-02-11T20:12:53.967Z,3.08
2019-02-11T20:15:27.587Z,3.10
2019-02-11T20:17:55.860Z,2.22
2019-02-11T20:20:27.197Z,3.30
2019-02-11T20:22:55.534Z,2.98
2019-02-11T20:25:32.688Z,2.37
2019-02-11T20:27:58.126Z,2.37
2019-02-11T20:30:28.341Z,1.82
2019-02-11T20:32:56.716Z,2.87
2019-02-11T20:35:25.050Z,2.67
2019-02-11T20:37:53.400Z,2.92
2019-02-11T20:40:29.293Z,2.62
2019-02-11T20:42:57.603Z,3.40
2019-02-11T20:45:28.207Z,2.60
2019-02-11T20:47:56.464Z,2.90
2019-02-11T20:50:24.752Z,2.67
2019-02-11T20:52:53.021Z,2.60
2019-02-11T20:55:21.310Z,2.87
2019-02-11T20:57:52.447Z,2.20
2019-02-11T21:00:24.080Z,3.15
2019-02-11T21:02:52.372Z,3.87
2019-02-11T21:05:20.826Z,3.02
2019-02-11T21:07:49.099Z,2.42
2019-02-11T21:10:19.119Z,3.15
2019-02-11T21:12:47.401Z,2.67
2019-02-11T21:15:16.519Z,3.00
2019-02-11T21:17:44.832Z,2.87
2019-02-11T21:20:18.651Z,3.17
2019-02-11T21:22:47.245Z,2.50
2019-02-11T21:25:15.505Z,2.67
2019-02-11T21:27:43.808Z,2.72
2019-02-11T21:30:13.621Z,2.67
2019-02-11T21:32:41.961Z,2.85
2019-02-11T21:35:11.481Z,3.40
2019-02-11T21:37:40.044Z,2.42
2019-02-11T21:40:08.639Z,2.90
2019-02-11T21:42:36.912Z,2.80
2019-02-11T21:45:08.020Z,2.10
2019-02-11T21:47:36.303Z,2.45
2019-02-11T21:50:26.693Z,3.08
2019-02-11T21:52:52.932Z,3.10
2019-02-11T21:55:23.227Z,2.47
2019-02-11T21:57:51.650Z,2.70
2019-02-11T22:00:21.944Z,2.30
2019-02-11T22:02:50.285Z,2.10
2019-02-11T22:05:18.554Z,2.90
2019-02-11T22:07:46.870Z,2.65
2019-02-11T22:10:19.850Z,2.42
2019-02-11T22:12:48.120Z,3.05
2019-02-11T22:15:16.405Z,2.42
2019-02-11T22:17:44.692Z,2.80
2019-02-11T22:20:20.696Z,2.75
2019-02-11T22:22:48.967Z,2.67
2019-02-11T22:25:17.218Z,3.22
2019-02-11T22:27:45.501Z,2.30
2019-02-11T22:30:41.292Z,2.12
2019-02-11T22:33:09.590Z,2.37
2019-02-11T22:35:37.838Z,2.30
2019-02-11T22:38:06.111Z,2.20
2019-02-11T22:40:34.360Z,2.47
2019-02-11T22:43:02.676Z,2.35
2019-02-11T22:45:30.948Z,2.77
2019-02-11T22:47:59.284Z,2.50
2019-02-11T22:50:27.541Z,2.75
2019-02-11T22:52:55.819Z,2.12
2019-02-11T22:55:24.082Z,3.00
2019-02-11T22:57:52.393Z,3.10
2019-02-11T23:00:25.206Z,2.42
2019-02-11T23:02:53.480Z,2.22
2019-02-11T23:05:21.762Z,2.60
2019-02-11T23:07:50.017Z,2.00
2019-02-11T23:10:18.286Z,1.98
2019-02-11T23:12:46.561Z,2.00
2019-02-11T23:15:14.830Z,1.65
2019-02-11T23:17:43.086Z,1.80
2019-02-11T23:20:11.383Z,2.42
2019-02-11T23:22:39.662Z,1.80
2019-02-11T23:25:07.958Z,1.75
2019-02-11T23:27:36.220Z,2.00
2019-02-11T23:30:13.297Z,2.42
2019-02-11T23:32:36.870Z,2.27
2019-02-11T23:35:05.696Z,2.52
2019-02-11T23:37:33.955Z,2.25
2019-02-11T23:40:02.243Z,2.70
2019-02-11T23:42:31.485Z,1.85
2019-02-11T23:44:59.729Z,2.05
2019-02-11T23:47:27.975Z,1.85
2019-02-11T23:49:56.381Z,1.52
2019-02-11T23:52:24.635Z,2.00
2019-02-11T23:54:52.925Z,1.42
2019-02-11T23:57:21.222Z,1.72
2019-02-11T23:59:49.522Z,2.10
